createdAt,value
2022-09-28T00:01:09.183Z,91420.00
2022-09-28T00:03:53.215Z,91407.25
2022-09-28T00:06:38.115Z,91414.91
2022-09-28T00:09:20.880Z,91420.00
2022-09-28T00:12:03.698Z,91420.00
2022-09-28T00:14:46.477Z,91412.16
2022-09-28T00:17:29.387Z,91407.88
2022-09-28T00:20:12.357Z,91414.41
2022-09-28T00:22:56.506Z,91414.22
2022-09-28T00:25:39.266Z,91413.13
2022-09-28T00:28:22.076Z,91411.34
2022-09-28T00:31:04.863Z,91419.81
2022-09-28T00:33:51.378Z,91421.41
2022-09-28T00:36:35.070Z,91420.78
2022-09-28T00:39:19.265Z,91420.31
2022-09-28T00:42:02.188Z,91411.06
2022-09-28T00:44:49.012Z,91415.06
2022-09-28T00:47:40.823Z,91412.81
2022-09-28T00:50:28.046Z,91414.25
2022-09-28T00:53:14.683Z,91409.47
2022-09-28T00:56:04.053Z,91390.47
2022-09-28T00:58:50.001Z,91378.97
2022-09-28T01:01:32.771Z,91373.53
2022-09-28T01:04:15.767Z,91367.28
2022-09-28T01:07:00.019Z,91350.34
2022-09-28T01:09:44.840Z,91357.06
2022-09-28T01:12:29.607Z,91372.09
2022-09-28T01:15:13.345Z,91359.81
2022-09-28T01:18:08.331Z,91371.97
2022-09-28T01:21:02.497Z,91363.69
2022-09-28T01:24:32.211Z,91370.69
2022-09-28T01:27:21.579Z,91359.34
2022-09-28T01:30:08.475Z,91359.34
2022-09-28T01:32:59.547Z,91358.56
2022-09-28T01:35:49.060Z,91349.13
2022-09-28T01:38:38.504Z,91355.06
2022-09-28T01:41:25.059Z,91341.31
2022-09-28T01:44:13.959Z,91348.03
2022-09-28T01:47:04.190Z,91347.22
2022-09-28T01:49:51.749Z,91352.78
2022-09-28T01:52:41.002Z,91344.31
2022-09-28T01:55:30.786Z,91345.91
2022-09-28T01:58:18.722Z,91343.38
2022-09-28T02:01:09.775Z,91343.69
2022-09-28T02:04:02.743Z,91343.88
2022-09-28T02:06:51.991Z,91332.22
2022-09-28T02:09:39.113Z,91324.84
2022-09-28T02:12:26.746Z,91318.16
2022-09-28T02:15:15.622Z,91311.47
2022-09-28T02:18:02.255Z,91309.75
2022-09-28T02:20:57.559Z,91311.66
2022-09-28T02:23:47.287Z,91309.25
2022-09-28T02:26:34.332Z,91299.22
2022-09-28T02:29:17.429Z,91286.59
2022-09-28T02:32:00.411Z,91294.63
2022-09-28T02:34:44.999Z,91301.47
2022-09-28T02:37:28.615Z,91297.31
2022-09-28T02:40:16.146Z,91294.78
2022-09-28T02:43:06.431Z,91294.78
2022-09-28T02:46:02.110Z,91289.38
2022-09-28T02:49:22.736Z,91283.47
2022-09-28T02:52:24.101Z,91278.25
2022-09-28T02:55:40.638Z,91279.19
2022-09-28T02:58:35.212Z,91277.47
2022-09-28T03:01:27.680Z,91267.44
2022-09-28T03:04:19.862Z,91266.13
2022-09-28T03:07:07.599Z,91254.31
2022-09-28T03:10:00.480Z,91256.88
2022-09-28T03:12:45.405Z,91253.38
2022-09-28T03:15:29.895Z,91254.81
2022-09-28T03:18:12.985Z,91244.16
2022-09-28T03:20:57.774Z,91236.50
2022-09-28T03:23:41.235Z,91235.88
2022-09-28T03:26:25.467Z,91236.06
2022-09-28T03:29:08.415Z,91238.75
2022-09-28T03:31:51.607Z,91229.31
2022-09-28T03:34:35.624Z,91213.47
2022-09-28T03:37:19.023Z,91209.81
2022-09-28T03:40:02.409Z,91193.69
2022-09-28T03:42:46.756Z,91191.13
2022-09-28T03:45:29.696Z,91189.84
2022-09-28T03:48:12.529Z,91189.19
2022-09-28T03:50:56.017Z,91178.63
2022-09-28T03:53:39.419Z,91182.94
2022-09-28T03:56:22.805Z,91178.47
2022-09-28T03:59:07.085Z,91174.94
2022-09-28T04:01:50.162Z,91167.44
2022-09-28T04:04:33.264Z,91170.19
2022-09-28T04:07:16.069Z,91157.06
2022-09-28T04:10:00.160Z,91153.91
2022-09-28T04:12:43.024Z,91151.78
2022-09-28T04:15:27.321Z,91144.75
2022-09-28T04:18:11.667Z,91145.38
2022-09-28T04:21:15.370Z,91135.34
2022-09-28T04:24:04.532Z,91122.41
2022-09-28T04:26:47.455Z,91123.03
2022-09-28T04:29:31.206Z,91116.16
2022-09-28T04:32:17.116Z,91124.44
2022-09-28T04:35:00.279Z,91118.53
2022-09-28T04:37:43.236Z,91112.28
2022-09-28T04:40:26.294Z,91116.63
2022-09-28T04:43:09.253Z,91103.84
2022-09-28T04:45:52.249Z,91108.97
2022-09-28T04:48:39.024Z,91112.00
2022-09-28T04:51:34.606Z,91107.72
2022-09-28T04:54:17.528Z,91104.34
2022-09-28T04:57:00.600Z,91101.78
2022-09-28T04:59:43.389Z,91102.25
2022-09-28T05:02:26.292Z,91099.72
2022-09-28T05:05:28.967Z,91106.22
2022-09-28T05:08:32.633Z,91100.16
2022-09-28T05:11:15.989Z,91100.16
2022-09-28T05:13:59.124Z,91095.66
2022-09-28T05:16:42.133Z,91098.03
2022-09-28T05:19:43.238Z,91096.28
2022-09-28T05:22:28.554Z,91090.84
2022-09-28T05:25:11.695Z,91090.63
2022-09-28T05:28:08.243Z,91087.50
2022-09-28T05:31:04.567Z,91083.44
2022-09-28T05:34:13.187Z,91088.25
2022-09-28T05:36:56.043Z,91075.81
2022-09-28T05:39:40.443Z,91073.50
2022-09-28T05:42:23.297Z,91083.94
2022-09-28T05:45:06.748Z,91071.38
2022-09-28T05:47:49.739Z,91066.75
2022-09-28T05:50:35.855Z,91063.59
2022-09-28T05:53:18.909Z,91066.91
2022-09-28T05:56:04.032Z,91065.28
2022-09-28T05:58:48.695Z,91059.25
2022-09-28T06:01:34.572Z,91053.41
2022-09-28T06:04:18.547Z,91059.78
2022-09-28T06:07:03.532Z,91049.56
2022-09-28T06:09:46.340Z,91060.59
2022-09-28T06:12:36.942Z,91064.69
2022-09-28T06:15:26.061Z,91059.84
2022-09-28T06:18:14.033Z,91064.22
2022-09-28T06:21:05.894Z,91059.47
2022-09-28T06:23:56.276Z,91052.19
2022-09-28T06:26:39.839Z,91052.69
2022-09-28T06:29:24.778Z,91050.31
2022-09-28T06:32:08.481Z,91054.84
2022-09-28T06:34:56.379Z,91050.97
2022-09-28T06:37:41.016Z,91057.03
2022-09-28T06:40:24.850Z,91054.72
2022-09-28T06:43:11.508Z,91049.72
2022-09-28T06:46:15.188Z,91038.91
2022-09-28T06:49:09.289Z,91038.69
2022-09-28T06:52:14.960Z,91044.69
2022-09-28T06:55:41.198Z,91048.00
2022-09-28T06:58:50.446Z,91039.03
2022-09-28T07:01:41.774Z,91039.09
2022-09-28T07:04:44.867Z,91027.56
2022-09-28T07:07:50.087Z,91042.38
2022-09-28T07:10:42.757Z,91042.63
2022-09-28T07:13:50.883Z,91034.00
2022-09-28T07:17:05.839Z,91039.19
2022-09-28T07:19:44.501Z,91032.59
2022-09-28T07:22:41.280Z,91032.84
2022-09-28T07:25:30.230Z,91029.31
2022-09-28T07:28:35.871Z,91027.03
2022-09-28T07:31:35.196Z,91038.31
2022-09-28T07:34:45.416Z,91041.50
2022-09-28T07:37:34.061Z,91059.81
2022-09-28T07:40:34.864Z,91048.34
2022-09-28T07:43:20.833Z,91057.25
2022-09-28T07:46:09.251Z,91057.69
2022-09-28T07:48:53.689Z,91049.50
2022-09-28T07:52:00.385Z,91062.91
2022-09-28T07:54:43.131Z,91055.47
2022-09-28T07:57:38.444Z,91062.44
2022-09-28T08:00:41.851Z,91062.44
2022-09-28T08:03:24.693Z,91067.22
2022-09-28T08:06:11.166Z,91069.41
2022-09-28T08:08:56.899Z,91072.56
2022-09-28T08:11:49.841Z,91076.03
2022-09-28T08:14:53.018Z,91078.41
2022-09-28T08:17:51.240Z,91073.91
2022-09-28T08:20:53.834Z,91074.69
2022-09-28T08:23:37.364Z,91078.22
2022-09-28T08:26:22.538Z,91077.88
2022-09-28T08:29:06.301Z,91086.25
2022-09-28T08:32:16.807Z,91085.81
2022-09-28T08:35:26.377Z,91085.63
2022-09-28T08:38:27.752Z,91084.50
2022-09-28T08:41:40.684Z,91079.47
2022-09-28T08:44:47.202Z,91080.09
2022-09-28T08:48:13.633Z,91079.53
2022-09-28T08:51:31.123Z,91083.63
2022-09-28T08:54:40.564Z,91099.84
2022-09-28T08:57:38.373Z,91089.97
2022-09-28T09:00:24.234Z,91096.22
2022-09-28T09:03:10.799Z,91096.75
2022-09-28T09:06:03.588Z,91095.53
2022-09-28T09:09:23.728Z,91102.59
2022-09-28T09:12:14.895Z,91100.56
2022-09-28T09:15:41.438Z,91105.47
2022-09-28T09:18:52.198Z,91108.06
2022-09-28T09:22:01.515Z,91103.47
2022-09-28T09:24:50.571Z,91101.19
2022-09-28T09:27:52.070Z,91109.28
2022-09-28T09:30:44.590Z,91108.25
2022-09-28T09:33:46.906Z,91109.09
2022-09-28T09:37:08.655Z,91107.28
2022-09-28T09:40:16.185Z,91094.38
2022-09-28T09:43:40.243Z,91083.44
2022-09-28T09:46:48.060Z,91084.16
2022-09-28T09:49:37.592Z,91090.94
2022-09-28T09:52:26.649Z,91098.59
2022-09-28T09:55:17.761Z,91091.97
2022-09-28T09:58:14.867Z,91084.56
2022-09-28T10:01:08.065Z,91089.59
2022-09-28T10:04:20.758Z,91088.44
2022-09-28T10:07:06.029Z,91086.66
2022-09-28T10:09:52.806Z,91093.31
2022-09-28T10:12:53.355Z,91099.31
2022-09-28T10:15:36.871Z,91096.56
2022-09-28T10:18:34.640Z,91091.00
2022-09-28T10:21:40.648Z,91089.50
2022-09-28T10:24:42.530Z,91086.38
2022-09-28T10:27:29.545Z,91089.03
2022-09-28T10:30:18.928Z,91091.22
2022-09-28T10:33:02.501Z,91085.56
2022-09-28T10:35:49.747Z,91086.97
2022-09-28T10:38:35.186Z,91086.19
2022-09-28T10:41:28.758Z,91088.19
2022-09-28T10:44:18.854Z,91094.72
2022-09-28T10:47:25.083Z,91093.56
2022-09-28T10:50:21.961Z,91094.97
2022-09-28T10:53:20.186Z,91092.66
2022-09-28T10:56:24.061Z,91101.03
2022-09-28T10:59:38.131Z,91098.72
2022-09-28T11:02:38.558Z,91103.16
2022-09-28T11:05:32.511Z,91095.91
2022-09-28T11:08:23.948Z,91095.81
2022-09-28T11:11:10.304Z,91108.16
2022-09-28T11:13:57.410Z,91100.94
2022-09-28T11:16:45.221Z,91097.84
2022-09-28T11:19:29.977Z,91091.00
2022-09-28T11:22:41.674Z,91099.53
2022-09-28T11:25:28.146Z,91111.84
2022-09-28T11:28:23.344Z,91110.88
2022-09-28T11:31:09.824Z,91108.50
2022-09-28T11:34:31.006Z,91104.81
2022-09-28T11:37:48.440Z,91098.13
2022-09-28T11:40:51.468Z,91105.25
2022-09-28T11:43:57.938Z,91102.31
2022-09-28T11:46:53.023Z,91108.81
2022-09-28T11:49:41.276Z,91104.72
2022-09-28T11:52:28.780Z,91114.59
2022-09-28T11:55:18.444Z,91116.19
2022-09-28T11:58:07.052Z,91125.03
2022-09-28T12:00:56.918Z,91121.81
2022-09-28T12:03:54.891Z,91111.31
2022-09-28T12:06:46.097Z,91115.84
2022-09-28T12:09:37.134Z,91126.47
2022-09-28T12:12:36.412Z,91134.00
2022-09-28T12:15:28.475Z,91137.94
2022-09-28T12:18:18.852Z,91144.28
2022-09-28T12:21:14.900Z,91144.72
2022-09-28T12:24:04.446Z,91145.13
2022-09-28T12:26:53.196Z,91151.66
2022-09-28T12:29:42.075Z,91146.91
2022-09-28T12:32:32.911Z,91138.78
2022-09-28T12:35:20.785Z,91140.56
2022-09-28T12:38:22.414Z,91143.34
2022-09-28T12:41:16.823Z,91152.69
2022-09-28T12:44:18.763Z,91158.09
2022-09-28T12:47:22.796Z,91147.53
2022-09-28T12:53:34.978Z,91153.81
2022-09-28T12:56:23.303Z,91147.34
2022-09-28T12:59:18.190Z,91144.84
2022-09-28T13:02:29.118Z,91148.47
2022-09-28T13:05:35.027Z,91149.28
2022-09-28T13:08:23.551Z,91154.88
2022-09-28T13:11:21.599Z,91145.78
2022-09-28T13:14:26.110Z,91153.34
2022-09-28T13:17:21.415Z,91162.44
2022-09-28T13:20:13.760Z,91158.72
2022-09-28T13:23:07.250Z,91160.28
2022-09-28T13:25:56.211Z,91157.50
2022-09-28T13:28:42.824Z,91154.09
2022-09-28T13:31:32.476Z,91159.81
2022-09-28T13:34:22.449Z,91168.53
2022-09-28T13:37:22.083Z,91172.06
2022-09-28T13:40:06.364Z,91180.59
2022-09-28T13:43:06.915Z,91176.22
2022-09-28T13:46:07.474Z,91171.47
2022-09-28T13:49:04.498Z,91185.28
2022-09-28T13:52:03.795Z,91169.06
2022-09-28T13:55:03.598Z,91180.91
2022-09-28T13:57:52.333Z,91190.34
2022-09-28T14:00:45.597Z,91188.34
2022-09-28T14:03:44.442Z,91189.50
2022-09-28T14:06:29.119Z,91191.50
2022-09-28T14:09:26.268Z,91185.31
2022-09-28T14:12:47.954Z,91188.28
2022-09-28T14:15:43.798Z,91190.41
2022-09-28T14:18:33.195Z,91187.25
2022-09-28T14:21:54.353Z,91188.03
2022-09-28T14:25:06.477Z,91191.78
2022-09-28T14:28:04.919Z,91196.09
2022-09-28T14:30:50.883Z,91192.31
2022-09-28T14:33:38.788Z,91184.63
2022-09-28T14:36:47.439Z,91193.13
2022-09-28T14:39:50.101Z,91190.56
2022-09-28T14:42:33.400Z,91193.91
2022-09-28T14:45:21.894Z,91193.91
2022-09-28T14:48:20.859Z,91196.06
2022-09-28T14:51:39.181Z,91194.47
2022-09-28T14:54:24.614Z,91204.53
2022-09-28T14:57:17.246Z,91206.53
2022-09-28T15:00:01.699Z,91188.34
2022-09-28T15:02:51.931Z,91184.63
2022-09-28T15:05:43.970Z,91187.19
2022-09-28T15:08:37.141Z,91187.63
2022-09-28T15:11:23.653Z,91174.56
2022-09-28T15:14:08.372Z,91186.84
2022-09-28T15:16:51.068Z,91187.66
2022-09-28T15:19:42.884Z,91173.84
2022-09-28T15:22:25.760Z,91167.28
2022-09-28T15:25:14.882Z,91173.22
2022-09-28T15:28:02.366Z,91177.56
2022-09-28T15:30:46.180Z,91186.06
2022-09-28T15:33:48.935Z,91189.59
2022-09-28T15:36:35.757Z,91188.03
2022-09-28T15:39:23.032Z,91195.13
2022-09-28T15:42:07.042Z,91198.66
2022-09-28T15:45:13.236Z,91206.31
2022-09-28T15:48:18.713Z,91217.56
2022-09-28T15:51:10.975Z,91220.88
2022-09-28T15:53:58.371Z,91229.56
2022-09-28T15:56:53.639Z,91232.31
2022-09-28T15:59:39.306Z,91230.94
2022-09-28T16:02:25.189Z,91233.66
2022-09-28T16:05:35.765Z,91227.91
2022-09-28T16:08:24.675Z,91232.06
2022-09-28T16:11:13.664Z,91227.50
2022-09-28T16:14:01.792Z,91232.84
2022-09-28T16:16:47.995Z,91232.03
2022-09-28T16:19:37.802Z,91232.84
2022-09-28T16:22:26.733Z,91236.38
2022-09-28T16:25:19.126Z,91226.47
2022-09-28T16:28:02.200Z,91228.28
2022-09-28T16:31:01.631Z,91233.75
2022-09-28T16:33:46.681Z,91235.53
2022-09-28T16:36:42.722Z,91237.47
2022-09-28T16:39:25.691Z,91229.97
2022-09-28T16:42:09.907Z,91245.38
2022-09-28T16:44:53.029Z,91250.50
2022-09-28T16:47:36.025Z,91247.31
2022-09-28T16:50:19.497Z,91256.00
2022-09-28T16:53:31.189Z,91247.25
2022-09-28T16:56:14.586Z,91250.81
2022-09-28T16:58:57.509Z,91250.38
2022-09-28T17:01:43.730Z,91242.25
2022-09-28T17:04:27.665Z,91245.00
2022-09-28T17:07:13.174Z,91245.22
2022-09-28T17:09:57.931Z,91263.16
2022-09-28T17:12:41.795Z,91260.75
2022-09-28T17:15:26.007Z,91265.06
2022-09-28T17:18:09.355Z,91271.03
2022-09-28T17:20:55.054Z,91265.06
2022-09-28T17:23:37.885Z,91267.81
2022-09-28T17:26:30.201Z,91263.66
2022-09-28T17:29:15.331Z,91267.38
2022-09-28T17:31:58.222Z,91274.66
2022-09-28T17:34:41.027Z,91272.25
2022-09-28T17:37:23.787Z,91275.63
2022-09-28T17:40:16.636Z,91272.25
2022-09-28T17:43:01.071Z,91265.38
2022-09-28T17:45:47.048Z,91264.41
2022-09-28T17:48:29.967Z,91257.50
2022-09-28T17:51:14.893Z,91257.50
2022-09-28T17:53:58.175Z,91256.50
2022-09-28T17:56:42.428Z,91255.72
2022-09-28T17:59:27.194Z,91272.88
2022-09-28T18:02:10.919Z,91274.03
2022-09-28T18:04:54.105Z,91277.38
2022-09-28T18:07:37.721Z,91277.59
2022-09-28T18:10:23.649Z,91272.66
2022-09-28T18:13:06.941Z,91266.91
2022-09-28T18:15:52.907Z,91263.53
2022-09-28T18:18:38.340Z,91273.78
2022-09-28T18:21:21.916Z,91274.59
2022-09-28T18:24:05.122Z,91275.72
2022-09-28T18:26:47.970Z,91271.56
2022-09-28T18:29:33.264Z,91268.84
2022-09-28T18:32:17.911Z,91283.25
2022-09-28T18:35:00.698Z,91281.66
2022-09-28T18:37:43.552Z,91293.69
2022-09-28T18:40:27.037Z,91288.56
2022-09-28T18:43:10.474Z,91293.88
2022-09-28T18:45:55.110Z,91297.41
2022-09-28T18:48:40.654Z,91298.38
2022-09-28T18:51:23.763Z,91294.06
2022-09-28T18:54:07.190Z,91293.25
2022-09-28T18:56:51.301Z,91288.06
2022-09-28T18:59:34.166Z,91290.81
2022-09-28T19:02:17.160Z,91285.69
2022-09-28T19:05:01.505Z,91300.25
2022-09-28T19:07:44.397Z,91307.78
2022-09-28T19:10:27.617Z,91309.97
2022-09-28T19:13:10.677Z,91306.00
2022-09-28T19:15:53.568Z,91311.75
2022-09-28T19:18:36.821Z,91309.81
2022-09-28T19:21:22.189Z,91311.56
2022-09-28T19:24:05.608Z,91314.31
2022-09-28T19:26:49.491Z,91317.84
2022-09-28T19:29:32.394Z,91306.78
2022-09-28T19:32:15.373Z,91298.13
2022-09-28T19:34:59.334Z,91312.53
2022-09-28T19:37:46.651Z,91321.03
2022-09-28T19:40:30.155Z,91330.47
2022-09-28T19:43:13.924Z,91326.31
2022-09-28T19:45:57.104Z,91327.13
2022-09-28T19:48:43.380Z,91339.75
2022-09-28T19:51:28.732Z,91346.66
2022-09-28T19:54:13.719Z,91340.72
2022-09-28T19:56:57.595Z,91343.28
2022-09-28T19:59:40.606Z,91346.03
2022-09-28T20:02:24.012Z,91345.22
2022-09-28T20:05:07.196Z,91346.41
2022-09-28T20:07:50.092Z,91354.09
2022-09-28T20:10:34.926Z,91352.50
2022-09-28T20:13:17.944Z,91345.78
2022-09-28T20:16:04.951Z,91357.97
2022-09-28T20:18:50.939Z,91354.38
2022-09-28T20:21:33.936Z,91364.97
2022-09-28T20:24:17.613Z,91353.50
2022-09-28T20:27:02.837Z,91366.03
2022-09-28T20:29:45.725Z,91367.00
2022-09-28T20:32:31.874Z,91370.38
2022-09-28T20:35:22.331Z,91372.13
2022-09-28T20:38:13.731Z,91369.59
2022-09-28T20:41:00.721Z,91368.97
2022-09-28T20:43:46.564Z,91388.69
2022-09-28T20:46:29.565Z,91393.97
2022-09-28T20:49:12.855Z,91401.03
2022-09-28T20:51:55.847Z,91405.56
2022-09-28T20:54:38.779Z,91403.34
2022-09-28T20:57:21.683Z,91404.47
2022-09-28T21:00:06.948Z,91405.81
2022-09-28T21:02:53.033Z,91411.72
2022-09-28T21:05:36.856Z,91409.97
2022-09-28T21:08:22.366Z,91408.38
2022-09-28T21:11:05.241Z,91408.81
2022-09-28T21:13:48.780Z,91409.59
2022-09-28T21:16:35.314Z,91416.16
2022-09-28T21:19:18.248Z,91420.13
2022-09-28T21:22:01.081Z,91419.94
2022-09-28T21:24:43.922Z,91425.06
2022-09-28T21:27:26.786Z,91420.13
2022-09-28T21:30:10.652Z,91410.84
2022-09-28T21:32:54.839Z,91414.38
2022-09-28T21:35:38.584Z,91416.16
2022-09-28T21:38:21.469Z,91422.88
2022-09-28T21:41:04.408Z,91433.09
2022-09-28T21:43:47.395Z,91424.81
2022-09-28T21:46:34.239Z,91426.41
2022-09-28T21:49:18.758Z,91428.97
2022-09-28T21:52:02.140Z,91434.09
2022-09-28T21:54:44.993Z,91426.41
2022-09-28T21:57:27.872Z,91424.47
2022-09-28T22:00:14.148Z,91433.09
2022-09-28T22:02:57.081Z,91425.44
2022-09-28T22:05:41.333Z,91429.59
2022-09-28T22:08:24.704Z,91426.22
2022-09-28T22:11:09.567Z,91426.06
2022-09-28T22:13:54.694Z,91427.63
2022-09-28T22:16:37.536Z,91434.50
2022-09-28T22:19:20.619Z,91422.50
2022-09-28T22:22:04.868Z,91426.84
2022-09-28T22:24:47.712Z,91434.69
2022-09-28T22:27:32.921Z,91428.59
2022-09-28T22:30:15.852Z,91436.31
2022-09-28T22:32:58.676Z,91451.81
2022-09-28T22:35:41.534Z,91449.59
2022-09-28T22:38:25.910Z,91444.66
2022-09-28T22:41:08.751Z,91437.94
2022-09-28T22:43:53.199Z,91441.28
2022-09-28T22:46:36.446Z,91441.13
2022-09-28T22:49:19.391Z,91430.09
2022-09-28T22:52:02.610Z,91436.81
2022-09-28T22:54:48.011Z,91435.84
2022-09-28T22:57:30.844Z,91428.97
2022-09-28T23:00:14.931Z,91438.38
2022-09-28T23:02:57.763Z,91441.13
2022-09-28T23:05:40.697Z,91446.41
2022-09-28T23:08:25.031Z,91449.34
2022-09-28T23:11:09.418Z,91433.69
2022-09-28T23:13:53.238Z,91449.06
2022-09-28T23:16:36.132Z,91442.53
2022-09-28T23:19:19.039Z,91457.91
2022-09-28T23:22:01.981Z,91457.44
2022-09-28T23:24:44.801Z,91456.66
2022-09-28T23:27:29.028Z,91453.13
2022-09-28T23:30:12.339Z,91459.84
2022-09-28T23:32:55.251Z,91453.28
2022-09-28T23:35:38.088Z,91459.38
2022-09-28T23:38:20.992Z,91457.00
2022-09-28T23:41:03.859Z,91453.81
2022-09-28T23:43:48.186Z,91448.69
2022-09-28T23:46:31.073Z,91450.47
2022-09-28T23:49:14.069Z,91447.72
2022-09-28T23:51:57.099Z,91446.31
2022-09-28T23:54:39.935Z,91447.28
2022-09-28T23:57:23.051Z,91441.53
